sensor_id;sensor_type;location;lat;lon;timestamp;P1;durP1;ratioP1;P2;durP2;ratioP2
2934;SDS011;2462;51.456;7.248;2022-12-01T00:00:18;39.80;;;20.13;;
2934;SDS011;2462;51.456;7.248;2022-12-01T00:02:43;38.87;;;19.23;;
2934;SDS011;2462;51.456;7.248;2022-12-01T00:05:09;42.17;;;20.67;;
2934;SDS011;2462;51.456;7.248;2022-12-01T00:07:34;36.77;;;17.97;;
2934;SDS011;2462;51.456;7.248;2022-12-01T00:10:00;35.43;;;18.63;;
2934;SDS011;2462;51.456;7.248;2022-12-01T00:12:44;37.27;;;18.83;;
2934;SDS011;2462;51.456;7.248;2022-12-01T00:15:09;35.10;;;20.07;;
2934;SDS011;2462;51.456;7.248;2022-12-01T00:17:35;43.10;;;20.73;;
2934;SDS011;2462;51.456;7.248;2022-12-01T00:20:01;44.50;;;20.30;;
2934;SDS011;2462;51.456;7.248;2022-12-01T00:22:27;44.90;;;21.10;;
2934;SDS011;2462;51.456;7.248;2022-12-01T00:24:53;34.90;;;20.00;;
2934;SDS011;2462;51.456;7.248;2022-12-01T00:27:18;40.97;;;19.73;;
2934;SDS011;2462;51.456;7.248;2022-12-01T00:29:44;39.50;;;19.97;;
2934;SDS011;2462;51.456;7.248;2022-12-01T00:32:10;46.03;;;22.20;;
2934;SDS011;2462;51.456;7.248;2022-12-01T00:34:35;41.17;;;20.40;;
2934;SDS011;2462;51.456;7.248;2022-12-01T00:37:02;42.53;;;19.20;;
2934;SDS011;2462;51.456;7.248;2022-12-01T00:39:28;44.17;;;21.27;;
2934;SDS011;2462;51.456;7.248;2022-12-01T00:41:54;42.17;;;21.43;;
2934;SDS011;2462;51.456;7.248;2022-12-01T00:44:19;46.83;;;20.40;;
2934;SDS011;2462;51.456;7.248;2022-12-01T00:46:45;44.50;;;21.93;;
2934;SDS011;2462;51.456;7.248;2022-12-01T00:49:11;38.47;;;19.20;;
2934;SDS011;2462;51.456;7.248;2022-12-01T00:51:37;50.67;;;20.23;;
2934;SDS011;2462;51.456;7.248;2022-12-01T00:54:03;47.20;;;21.40;;
2934;SDS011;2462;51.456;7.248;2022-12-01T00:56:28;49.93;;;23.60;;
2934;SDS011;2462;51.456;7.248;2022-12-01T00:58:54;49.23;;;21.73;;
2934;SDS011;2462;51.456;7.248;2022-12-01T01:01:20;52.37;;;25.70;;
2934;SDS011;2462;51.456;7.248;2022-12-01T01:03:45;60.60;;;23.60;;
2934;SDS011;2462;51.456;7.248;2022-12-01T01:06:11;58.17;;;23.90;;
2934;SDS011;2462;51.456;7.248;2022-12-01T01:08:37;59.40;;;24.00;;
2934;SDS011;2462;51.456;7.248;2022-12-01T01:11:04;51.97;;;22.27;;
2934;SDS011;2462;51.456;7.248;2022-12-01T01:13:30;58.40;;;23.93;;
2934;SDS011;2462;51.456;7.248;2022-12-01T01:16:39;53.77;;;23.70;;
2934;SDS011;2462;51.456;7.248;2022-12-01T01:18:46;48.37;;;22.03;;
2934;SDS011;2462;51.456;7.248;2022-12-01T01:21:14;54.17;;;23.80;;
2934;SDS011;2462;51.456;7.248;2022-12-01T01:23:41;60.47;;;26.10;;
2934;SDS011;2462;51.456;7.248;2022-12-01T01:26:10;61.90;;;25.97;;
2934;SDS011;2462;51.456;7.248;2022-12-01T01:28:47;53.87;;;22.03;;
2934;SDS011;2462;51.456;7.248;2022-12-01T01:31:14;61.97;;;26.43;;
2934;SDS011;2462;51.456;7.248;2022-12-01T01:33:41;51.43;;;23.40;;
2934;SDS011;2462;51.456;7.248;2022-12-01T01:36:08;47.67;;;23.70;;
2934;SDS011;2462;51.456;7.248;2022-12-01T01:38:34;51.97;;;23.00;;
2934;SDS011;2462;51.456;7.248;2022-12-01T01:41:00;49.53;;;22.00;;
2934;SDS011;2462;51.456;7.248;2022-12-01T01:46:10;40.73;;;20.20;;
2934;SDS011;2462;51.456;7.248;2022-12-01T01:48:39;36.47;;;20.53;;
2934;SDS011;2462;51.456;7.248;2022-12-01T01:51:07;35.53;;;18.63;;
2934;SDS011;2462;51.456;7.248;2022-12-01T01:53:35;42.70;;;20.67;;
2934;SDS011;2462;51.456;7.248;2022-12-01T01:56:01;39.23;;;20.20;;
2934;SDS011;2462;51.456;7.248;2022-12-01T01:58:28;51.57;;;21.50;;
2934;SDS011;2462;51.456;7.248;2022-12-01T02:00:55;55.77;;;23.20;;
2934;SDS011;2462;51.456;7.248;2022-12-01T02:03:21;44.13;;;21.03;;
2934;SDS011;2462;51.456;7.248;2022-12-01T02:05:47;49.03;;;22.87;;
2934;SDS011;2462;51.456;7.248;2022-12-01T02:08:13;54.87;;;23.70;;
2934;SDS011;2462;51.456;7.248;2022-12-01T02:16:07;53.27;;;23.33;;
2934;SDS011;2462;51.456;7.248;2022-12-01T02:18:54;49.07;;;23.13;;
2934;SDS011;2462;51.456;7.248;2022-12-01T02:27:56;50.40;;;21.23;;
2934;SDS011;2462;51.456;7.248;2022-12-01T02:36:29;44.23;;;20.43;;
2934;SDS011;2462;51.456;7.248;2022-12-01T02:41:47;39.73;;;20.10;;
2934;SDS011;2462;51.456;7.248;2022-12-01T02:44:29;40.20;;;20.37;;
2934;SDS011;2462;51.456;7.248;2022-12-01T02:47:04;44.67;;;20.93;;
2934;SDS011;2462;51.456;7.248;2022-12-01T02:49:38;43.80;;;19.33;;
2934;SDS011;2462;51.456;7.248;2022-12-01T02:52:07;50.10;;;20.97;;
2934;SDS011;2462;51.456;7.248;2022-12-01T02:54:35;44.10;;;20.63;;
2934;SDS011;2462;51.456;7.248;2022-12-01T02:57:02;41.87;;;19.50;;
2934;SDS011;2462;51.456;7.248;2022-12-01T02:59:28;40.57;;;19.10;;
2934;SDS011;2462;51.456;7.248;2022-12-01T03:01:57;42.10;;;20.70;;
2934;SDS011;2462;51.456;7.248;2022-12-01T03:15:47;33.83;;;18.63;;
2934;SDS011;2462;51.456;7.248;2022-12-01T03:24:12;40.43;;;18.67;;
2934;SDS011;2462;51.456;7.248;2022-12-01T03:26:42;34.07;;;17.63;;
2934;SDS011;2462;51.456;7.248;2022-12-01T03:29:14;37.57;;;17.83;;
2934;SDS011;2462;51.456;7.248;2022-12-01T03:31:46;36.90;;;16.97;;
2934;SDS011;2462;51.456;7.248;2022-12-01T03:34:20;36.93;;;19.10;;
2934;SDS011;2462;51.456;7.248;2022-12-01T03:37:02;38.83;;;18.27;;
2934;SDS011;2462;51.456;7.248;2022-12-01T03:39:33;43.33;;;18.07;;
2934;SDS011;2462;51.456;7.248;2022-12-01T03:42:04;39.77;;;17.97;;
2934;SDS011;2462;51.456;7.248;2022-12-01T03:44:41;46.50;;;21.00;;
2934;SDS011;2462;51.456;7.248;2022-12-01T03:47:17;41.63;;;19.10;;
2934;SDS011;2462;51.456;7.248;2022-12-01T03:49:45;45.97;;;19.90;;
2934;SDS011;2462;51.456;7.248;2022-12-01T03:55:08;46.20;;;19.10;;
2934;SDS011;2462;51.456;7.248;2022-12-01T03:57:45;40.73;;;18.57;;
2934;SDS011;2462;51.456;7.248;2022-12-01T04:00:39;50.20;;;20.93;;
2934;SDS011;2462;51.456;7.248;2022-12-01T04:03:14;47.30;;;19.57;;
2934;SDS011;2462;51.456;7.248;2022-12-01T04:05:42;42.40;;;18.67;;
2934;SDS011;2462;51.456;7.248;2022-12-01T04:08:07;37.03;;;17.40;;
2934;SDS011;2462;51.456;7.248;2022-12-01T04:10:33;43.30;;;17.63;;
2934;SDS011;2462;51.456;7.248;2022-12-01T04:12:59;39.87;;;18.87;;
2934;SDS011;2462;51.456;7.248;2022-12-01T04:15:25;39.70;;;19.17;;
2934;SDS011;2462;51.456;7.248;2022-12-01T04:17:51;41.87;;;20.93;;
2934;SDS011;2462;51.456;7.248;2022-12-01T04:20:17;45.93;;;20.47;;
2934;SDS011;2462;51.456;7.248;2022-12-01T04:22:42;40.73;;;19.30;;
2934;SDS011;2462;51.456;7.248;2022-12-01T04:25:08;47.53;;;21.17;;
2934;SDS011;2462;51.456;7.248;2022-12-01T04:27:35;39.67;;;18.90;;
2934;SDS011;2462;51.456;7.248;2022-12-01T04:30:02;47.50;;;18.83;;
2934;SDS011;2462;51.456;7.248;2022-12-01T04:32:31;38.77;;;18.70;;
2934;SDS011;2462;51.456;7.248;2022-12-01T04:35:00;40.47;;;17.43;;
2934;SDS011;2462;51.456;7.248;2022-12-01T04:37:26;33.00;;;15.77;;
2934;SDS011;2462;51.456;7.248;2022-12-01T04:39:51;33.43;;;15.60;;
2934;SDS011;2462;51.456;7.248;2022-12-01T04:42:17;34.27;;;19.00;;
2934;SDS011;2462;51.456;7.248;2022-12-01T04:44:42;38.37;;;15.10;;
2934;SDS011;2462;51.456;7.248;2022-12-01T04:47:08;28.80;;;15.00;;
2934;SDS011;2462;51.456;7.248;2022-12-01T04:49:33;33.90;;;16.50;;
2934;SDS011;2462;51.456;7.248;2022-12-01T04:52:01;30.37;;;15.93;;
2934;SDS011;2462;51.456;7.248;2022-12-01T04:54:26;31.13;;;16.60;;
2934;SDS011;2462;51.456;7.248;2022-12-01T04:56:52;30.00;;;17.00;;
2934;SDS011;2462;51.456;7.248;2022-12-01T04:59:17;38.53;;;17.53;;
2934;SDS011;2462;51.456;7.248;2022-12-01T05:01:43;31.20;;;16.27;;
2934;SDS011;2462;51.456;7.248;2022-12-01T05:04:10;28.40;;;15.27;;
2934;SDS011;2462;51.456;7.248;2022-12-01T05:06:37;32.93;;;15.80;;
2934;SDS011;2462;51.456;7.248;2022-12-01T05:09:03;36.53;;;17.90;;
2934;SDS011;2462;51.456;7.248;2022-12-01T05:11:29;39.10;;;17.97;;
2934;SDS011;2462;51.456;7.248;2022-12-01T05:13:56;35.40;;;16.90;;
2934;SDS011;2462;51.456;7.248;2022-12-01T05:16:23;30.87;;;16.23;;
2934;SDS011;2462;51.456;7.248;2022-12-01T05:18:54;34.37;;;15.00;;
2934;SDS011;2462;51.456;7.248;2022-12-01T05:21:40;34.83;;;17.00;;
2934;SDS011;2462;51.456;7.248;2022-12-01T05:24:07;34.20;;;16.60;;
2934;SDS011;2462;51.456;7.248;2022-12-01T05:26:33;31.53;;;17.30;;
2934;SDS011;2462;51.456;7.248;2022-12-01T05:28:59;36.50;;;18.30;;
2934;SDS011;2462;51.456;7.248;2022-12-01T05:31:24;35.43;;;16.63;;
2934;SDS011;2462;51.456;7.248;2022-12-01T05:33:50;39.10;;;17.70;;
2934;SDS011;2462;51.456;7.248;2022-12-01T05:36:15;37.60;;;17.30;;
2934;SDS011;2462;51.456;7.248;2022-12-01T05:38:41;37.63;;;19.17;;
2934;SDS011;2462;51.456;7.248;2022-12-01T05:41:06;32.07;;;16.70;;
2934;SDS011;2462;51.456;7.248;2022-12-01T05:43:32;35.50;;;17.87;;
2934;SDS011;2462;51.456;7.248;2022-12-01T05:45:57;38.97;;;19.43;;
2934;SDS011;2462;51.456;7.248;2022-12-01T05:48:23;38.27;;;16.23;;
2934;SDS011;2462;51.456;7.248;2022-12-01T05:50:49;33.40;;;15.90;;
2934;SDS011;2462;51.456;7.248;2022-12-01T05:53:15;33.37;;;18.07;;
2934;SDS011;2462;51.456;7.248;2022-12-01T05:55:41;33.20;;;17.10;;
2934;SDS011;2462;51.456;7.248;2022-12-01T05:58:07;31.23;;;15.93;;
2934;SDS011;2462;51.456;7.248;2022-12-01T06:00:32;34.93;;;17.40;;
2934;SDS011;2462;51.456;7.248;2022-12-01T06:02:58;33.33;;;16.80;;
2934;SDS011;2462;51.456;7.248;2022-12-01T06:05:25;30.73;;;16.77;;
2934;SDS011;2462;51.456;7.248;2022-12-01T06:07:50;34.40;;;16.97;;
2934;SDS011;2462;51.456;7.248;2022-12-01T06:10:16;34.10;;;16.63;;
2934;SDS011;2462;51.456;7.248;2022-12-01T06:12:42;25.37;;;14.60;;
2934;SDS011;2462;51.456;7.248;2022-12-01T06:15:07;24.97;;;15.57;;
2934;SDS011;2462;51.456;7.248;2022-12-01T06:17:34;25.27;;;14.80;;
2934;SDS011;2462;51.456;7.248;2022-12-01T06:20:00;26.87;;;16.20;;
2934;SDS011;2462;51.456;7.248;2022-12-01T06:22:25;29.67;;;16.20;;
2934;SDS011;2462;51.456;7.248;2022-12-01T06:24:51;34.60;;;16.07;;
2934;SDS011;2462;51.456;7.248;2022-12-01T06:27:16;29.33;;;15.60;;
2934;SDS011;2462;51.456;7.248;2022-12-01T06:29:42;30.40;;;17.07;;
2934;SDS011;2462;51.456;7.248;2022-12-01T06:32:07;34.97;;;15.70;;
2934;SDS011;2462;51.456;7.248;2022-12-01T06:34:34;33.87;;;15.43;;
2934;SDS011;2462;51.456;7.248;2022-12-01T06:36:59;33.27;;;17.27;;
2934;SDS011;2462;51.456;7.248;2022-12-01T06:39:25;32.50;;;16.17;;
2934;SDS011;2462;51.456;7.248;2022-12-01T06:41:50;35.83;;;17.57;;
2934;SDS011;2462;51.456;7.248;2022-12-01T06:44:16;29.00;;;16.23;;
2934;SDS011;2462;51.456;7.248;2022-12-01T06:46:41;25.93;;;15.30;;
2934;SDS011;2462;51.456;7.248;2022-12-01T06:49:10;38.53;;;16.43;;
2934;SDS011;2462;51.456;7.248;2022-12-01T06:51:36;38.63;;;16.10;;
2934;SDS011;2462;51.456;7.248;2022-12-01T06:54:02;30.20;;;16.40;;
2934;SDS011;2462;51.456;7.248;2022-12-01T06:56:27;32.07;;;16.80;;
2934;SDS011;2462;51.456;7.248;2022-12-01T06:58:53;31.97;;;16.80;;
2934;SDS011;2462;51.456;7.248;2022-12-01T07:01:18;31.70;;;15.70;;
2934;SDS011;2462;51.456;7.248;2022-12-01T07:03:50;30.43;;;16.23;;
2934;SDS011;2462;51.456;7.248;2022-12-01T07:06:16;34.40;;;16.10;;
2934;SDS011;2462;51.456;7.248;2022-12-01T07:08:42;34.67;;;17.73;;
2934;SDS011;2462;51.456;7.248;2022-12-01T07:11:10;35.40;;;18.57;;
2934;SDS011;2462;51.456;7.248;2022-12-01T07:13:37;32.17;;;15.37;;
2934;SDS011;2462;51.456;7.248;2022-12-01T07:16:04;32.20;;;16.13;;
2934;SDS011;2462;51.456;7.248;2022-12-01T07:18:31;31.50;;;17.40;;
2934;SDS011;2462;51.456;7.248;2022-12-01T07:21:01;36.00;;;17.80;;
2934;SDS011;2462;51.456;7.248;2022-12-01T07:23:28;40.63;;;19.03;;
2934;SDS011;2462;51.456;7.248;2022-12-01T07:25:57;35.40;;;18.43;;
2934;SDS011;2462;51.456;7.248;2022-12-01T07:28:27;39.80;;;18.03;;
2934;SDS011;2462;51.456;7.248;2022-12-01T07:30:53;41.40;;;17.67;;
2934;SDS011;2462;51.456;7.248;2022-12-01T07:33:18;44.77;;;18.70;;
2934;SDS011;2462;51.456;7.248;2022-12-01T07:35:44;41.33;;;18.70;;
2934;SDS011;2462;51.456;7.248;2022-12-01T07:38:09;47.23;;;18.50;;
2934;SDS011;2462;51.456;7.248;2022-12-01T07:40:35;43.27;;;18.23;;
2934;SDS011;2462;51.456;7.248;2022-12-01T07:43:00;40.83;;;17.97;;
2934;SDS011;2462;51.456;7.248;2022-12-01T07:45:26;40.80;;;18.93;;
2934;SDS011;2462;51.456;7.248;2022-12-01T07:47:51;39.57;;;16.90;;
2934;SDS011;2462;51.456;7.248;2022-12-01T07:50:18;34.73;;;18.60;;
2934;SDS011;2462;51.456;7.248;2022-12-01T07:52:43;44.37;;;19.23;;
2934;SDS011;2462;51.456;7.248;2022-12-01T07:55:12;35.20;;;16.77;;
2934;SDS011;2462;51.456;7.248;2022-12-01T07:57:38;33.53;;;17.57;;
2934;SDS011;2462;51.456;7.248;2022-12-01T08:00:03;35.93;;;16.77;;
2934;SDS011;2462;51.456;7.248;2022-12-01T08:02:30;33.63;;;16.70;;
2934;SDS011;2462;51.456;7.248;2022-12-01T08:04:55;31.00;;;17.33;;
2934;SDS011;2462;51.456;7.248;2022-12-01T08:07:21;28.20;;;14.90;;
2934;SDS011;2462;51.456;7.248;2022-12-01T08:09:46;36.63;;;15.87;;
2934;SDS011;2462;51.456;7.248;2022-12-01T08:12:12;36.47;;;15.17;;
2934;SDS011;2462;51.456;7.248;2022-12-01T08:14:37;27.27;;;15.70;;
2934;SDS011;2462;51.456;7.248;2022-12-01T08:17:03;32.77;;;16.83;;
2934;SDS011;2462;51.456;7.248;2022-12-01T08:19:28;23.63;;;14.33;;
2934;SDS011;2462;51.456;7.248;2022-12-01T08:21:54;36.47;;;15.03;;
2934;SDS011;2462;51.456;7.248;2022-12-01T08:24:19;32.37;;;13.37;;
2934;SDS011;2462;51.456;7.248;2022-12-01T08:26:45;23.97;;;13.80;;
2934;SDS011;2462;51.456;7.248;2022-12-01T08:29:10;25.10;;;13.70;;
2934;SDS011;2462;51.456;7.248;2022-12-01T08:31:36;23.03;;;12.73;;
2934;SDS011;2462;51.456;7.248;2022-12-01T08:34:04;27.20;;;14.33;;
2934;SDS011;2462;51.456;7.248;2022-12-01T08:36:30;30.80;;;13.73;;
2934;SDS011;2462;51.456;7.248;2022-12-01T08:38:56;28.23;;;12.90;;
2934;SDS011;2462;51.456;7.248;2022-12-01T08:41:22;30.80;;;13.80;;
2934;SDS011;2462;51.456;7.248;2022-12-01T08:43:49;27.17;;;12.90;;
2934;SDS011;2462;51.456;7.248;2022-12-01T08:46:15;30.63;;;14.33;;
2934;SDS011;2462;51.456;7.248;2022-12-01T08:48:40;25.27;;;12.20;;
2934;SDS011;2462;51.456;7.248;2022-12-01T08:51:10;24.53;;;12.77;;
2934;SDS011;2462;51.456;7.248;2022-12-01T08:53:41;31.87;;;13.97;;
2934;SDS011;2462;51.456;7.248;2022-12-01T08:56:50;30.07;;;15.70;;
2934;SDS011;2462;51.456;7.248;2022-12-01T08:58:58;25.30;;;14.20;;
2934;SDS011;2462;51.456;7.248;2022-12-01T09:01:24;28.97;;;15.50;;
2934;SDS011;2462;51.456;7.248;2022-12-01T09:03:50;31.63;;;14.43;;
2934;SDS011;2462;51.456;7.248;2022-12-01T09:06:29;27.70;;;14.83;;
2934;SDS011;2462;51.456;7.248;2022-12-01T09:08:57;28.40;;;16.77;;
2934;SDS011;2462;51.456;7.248;2022-12-01T09:11:24;36.50;;;16.37;;
2934;SDS011;2462;51.456;7.248;2022-12-01T09:13:49;31.03;;;19.03;;
2934;SDS011;2462;51.456;7.248;2022-12-01T09:16:16;35.73;;;19.43;;
2934;SDS011;2462;51.456;7.248;2022-12-01T09:18:42;36.37;;;16.80;;
2934;SDS011;2462;51.456;7.248;2022-12-01T09:21:10;31.10;;;16.00;;
2934;SDS011;2462;51.456;7.248;2022-12-01T09:23:37;34.37;;;18.17;;
2934;SDS011;2462;51.456;7.248;2022-12-01T09:26:03;43.83;;;21.00;;
2934;SDS011;2462;51.456;7.248;2022-12-01T09:28:29;38.03;;;21.43;;
2934;SDS011;2462;51.456;7.248;2022-12-01T09:30:55;37.40;;;17.17;;
2934;SDS011;2462;51.456;7.248;2022-12-01T09:33:21;37.20;;;20.17;;
2934;SDS011;2462;51.456;7.248;2022-12-01T09:35:46;36.67;;;17.33;;
2934;SDS011;2462;51.456;7.248;2022-12-01T09:38:11;32.93;;;17.07;;
2934;SDS011;2462;51.456;7.248;2022-12-01T09:40:38;32.70;;;18.13;;
2934;SDS011;2462;51.456;7.248;2022-12-01T09:43:26;31.97;;;16.87;;
2934;SDS011;2462;51.456;7.248;2022-12-01T09:46:00;32.07;;;17.10;;
2934;SDS011;2462;51.456;7.248;2022-12-01T09:48:30;33.43;;;17.53;;
2934;SDS011;2462;51.456;7.248;2022-12-01T09:51:08;31.50;;;16.67;;
2934;SDS011;2462;51.456;7.248;2022-12-01T09:53:41;36.53;;;18.37;;
2934;SDS011;2462;51.456;7.248;2022-12-01T09:56:19;36.40;;;17.00;;
2934;SDS011;2462;51.456;7.248;2022-12-01T09:58:47;34.07;;;16.10;;
2934;SDS011;2462;51.456;7.248;2022-12-01T10:01:17;32.40;;;17.10;;
2934;SDS011;2462;51.456;7.248;2022-12-01T10:03:49;37.33;;;17.23;;
2934;SDS011;2462;51.456;7.248;2022-12-01T10:06:20;31.53;;;16.10;;
2934;SDS011;2462;51.456;7.248;2022-12-01T10:09:11;29.53;;;16.57;;
2934;SDS011;2462;51.456;7.248;2022-12-01T10:12:06;33.03;;;16.73;;
2934;SDS011;2462;51.456;7.248;2022-12-01T10:14:38;31.57;;;18.17;;
2934;SDS011;2462;51.456;7.248;2022-12-01T10:19:53;41.83;;;18.57;;
2934;SDS011;2462;51.456;7.248;2022-12-01T10:25:22;39.27;;;20.67;;
2934;SDS011;2462;51.456;7.248;2022-12-01T10:28:00;38.10;;;19.40;;
2934;SDS011;2462;51.456;7.248;2022-12-01T10:30:47;34.10;;;17.20;;
2934;SDS011;2462;51.456;7.248;2022-12-01T10:33:25;35.63;;;19.43;;
2934;SDS011;2462;51.456;7.248;2022-12-01T10:35:55;43.60;;;20.67;;
2934;SDS011;2462;51.456;7.248;2022-12-01T10:38:25;40.43;;;20.80;;
2934;SDS011;2462;51.456;7.248;2022-12-01T10:40:58;38.43;;;20.13;;
2934;SDS011;2462;51.456;7.248;2022-12-01T10:43:39;46.00;;;23.80;;
2934;SDS011;2462;51.456;7.248;2022-12-01T10:48:59;51.63;;;26.63;;
2934;SDS011;2462;51.456;7.248;2022-12-01T10:51:44;51.37;;;25.37;;
2934;SDS011;2462;51.456;7.248;2022-12-01T10:54:12;50.87;;;24.50;;
2934;SDS011;2462;51.456;7.248;2022-12-01T10:56:38;48.30;;;24.70;;
2934;SDS011;2462;51.456;7.248;2022-12-01T10:59:14;46.37;;;25.23;;
2934;SDS011;2462;51.456;7.248;2022-12-01T11:01:49;58.17;;;25.57;;
2934;SDS011;2462;51.456;7.248;2022-12-01T11:06:55;46.23;;;24.60;;
2934;SDS011;2462;51.456;7.248;2022-12-01T11:09:25;49.70;;;22.20;;
2934;SDS011;2462;51.456;7.248;2022-12-01T11:11:53;55.40;;;27.23;;
2934;SDS011;2462;51.456;7.248;2022-12-01T11:14:27;53.10;;;26.17;;
2934;SDS011;2462;51.456;7.248;2022-12-01T11:16:56;49.40;;;26.50;;
2934;SDS011;2462;51.456;7.248;2022-12-01T11:19:49;54.67;;;28.57;;
2934;SDS011;2462;51.456;7.248;2022-12-01T11:22:24;60.27;;;28.77;;
2934;SDS011;2462;51.456;7.248;2022-12-01T11:27:51;67.47;;;31.67;;
2934;SDS011;2462;51.456;7.248;2022-12-01T11:32:50;63.73;;;30.80;;
2934;SDS011;2462;51.456;7.248;2022-12-01T11:35:18;66.63;;;32.80;;
2934;SDS011;2462;51.456;7.248;2022-12-01T11:37:48;67.60;;;31.67;;
2934;SDS011;2462;51.456;7.248;2022-12-01T11:40:22;60.40;;;30.77;;
2934;SDS011;2462;51.456;7.248;2022-12-01T11:42:52;69.07;;;33.70;;
2934;SDS011;2462;51.456;7.248;2022-12-01T11:50:27;66.20;;;30.30;;
2934;SDS011;2462;51.456;7.248;2022-12-01T11:52:55;68.00;;;32.87;;
2934;SDS011;2462;51.456;7.248;2022-12-01T11:55:22;59.97;;;30.93;;
2934;SDS011;2462;51.456;7.248;2022-12-01T11:57:49;66.77;;;30.20;;
2934;SDS011;2462;51.456;7.248;2022-12-01T12:00:18;67.23;;;32.30;;
2934;SDS011;2462;51.456;7.248;2022-12-01T12:06:03;62.03;;;28.23;;
2934;SDS011;2462;51.456;7.248;2022-12-01T12:08:51;66.83;;;30.43;;
2934;SDS011;2462;51.456;7.248;2022-12-01T12:11:40;61.43;;;31.23;;
2934;SDS011;2462;51.456;7.248;2022-12-01T12:14:22;64.80;;;31.70;;
2934;SDS011;2462;51.456;7.248;2022-12-01T12:17:19;69.57;;;32.60;;
2934;SDS011;2462;51.456;7.248;2022-12-01T12:19:56;59.70;;;32.20;;
2934;SDS011;2462;51.456;7.248;2022-12-01T12:30:36;69.03;;;32.80;;
2934;SDS011;2462;51.456;7.248;2022-12-01T12:36:31;68.00;;;33.30;;
2934;SDS011;2462;51.456;7.248;2022-12-01T12:45:24;64.13;;;33.23;;
2934;SDS011;2462;51.456;7.248;2022-12-01T12:53:37;71.20;;;31.83;;
2934;SDS011;2462;51.456;7.248;2022-12-01T12:56:09;70.30;;;31.37;;
2934;SDS011;2462;51.456;7.248;2022-12-01T13:01:38;65.87;;;32.90;;
2934;SDS011;2462;51.456;7.248;2022-12-01T13:04:09;69.03;;;33.63;;
2934;SDS011;2462;51.456;7.248;2022-12-01T13:06:55;86.47;;;43.13;;
2934;SDS011;2462;51.456;7.248;2022-12-01T13:09:30;75.43;;;37.10;;
2934;SDS011;2462;51.456;7.248;2022-12-01T13:12:14;74.03;;;37.37;;
2934;SDS011;2462;51.456;7.248;2022-12-01T13:15:10;79.43;;;38.00;;
2934;SDS011;2462;51.456;7.248;2022-12-01T13:17:40;65.67;;;32.07;;
2934;SDS011;2462;51.456;7.248;2022-12-01T13:20:12;65.80;;;31.40;;
2934;SDS011;2462;51.456;7.248;2022-12-01T13:22:43;76.23;;;35.60;;
2934;SDS011;2462;51.456;7.248;2022-12-01T13:25:11;72.47;;;34.37;;
2934;SDS011;2462;51.456;7.248;2022-12-01T13:27:39;75.73;;;33.63;;
2934;SDS011;2462;51.456;7.248;2022-12-01T13:30:25;67.07;;;34.37;;
2934;SDS011;2462;51.456;7.248;2022-12-01T13:32:57;68.50;;;32.10;;
2934;SDS011;2462;51.456;7.248;2022-12-01T13:35:28;65.43;;;32.20;;
2934;SDS011;2462;51.456;7.248;2022-12-01T13:38:20;68.83;;;33.97;;
2934;SDS011;2462;51.456;7.248;2022-12-01T13:41:10;71.27;;;33.23;;
2934;SDS011;2462;51.456;7.248;2022-12-01T13:55:02;56.87;;;30.87;;
2934;SDS011;2462;51.456;7.248;2022-12-01T14:00:33;69.40;;;33.43;;
2934;SDS011;2462;51.456;7.248;2022-12-01T14:08:20;66.13;;;35.40;;
2934;SDS011;2462;51.456;7.248;2022-12-01T14:10:55;63.03;;;33.17;;
2934;SDS011;2462;51.456;7.248;2022-12-01T14:13:26;61.83;;;32.97;;
2934;SDS011;2462;51.456;7.248;2022-12-01T14:15:54;61.67;;;32.27;;
2934;SDS011;2462;51.456;7.248;2022-12-01T14:18:34;72.33;;;32.27;;
2934;SDS011;2462;51.456;7.248;2022-12-01T14:21:07;54.10;;;30.13;;
2934;SDS011;2462;51.456;7.248;2022-12-01T14:23:58;64.30;;;32.33;;
2934;SDS011;2462;51.456;7.248;2022-12-01T14:26:25;57.63;;;30.83;;
2934;SDS011;2462;51.456;7.248;2022-12-01T14:31:23;63.67;;;31.67;;
2934;SDS011;2462;51.456;7.248;2022-12-01T14:34:11;62.27;;;31.07;;
2934;SDS011;2462;51.456;7.248;2022-12-01T14:36:43;59.17;;;29.90;;
2934;SDS011;2462;51.456;7.248;2022-12-01T14:41:52;60.27;;;32.50;;
2934;SDS011;2462;51.456;7.248;2022-12-01T14:47:04;58.90;;;32.10;;
2934;SDS011;2462;51.456;7.248;2022-12-01T14:49:37;71.10;;;34.63;;
2934;SDS011;2462;51.456;7.248;2022-12-01T14:52:16;67.50;;;32.93;;
2934;SDS011;2462;51.456;7.248;2022-12-01T14:55:05;68.20;;;33.00;;
2934;SDS011;2462;51.456;7.248;2022-12-01T14:57:38;66.43;;;32.90;;
2934;SDS011;2462;51.456;7.248;2022-12-01T15:02:41;61.33;;;32.33;;
2934;SDS011;2462;51.456;7.248;2022-12-01T15:05:14;64.20;;;31.43;;
2934;SDS011;2462;51.456;7.248;2022-12-01T15:07:44;57.07;;;28.80;;
2934;SDS011;2462;51.456;7.248;2022-12-01T15:10:19;71.63;;;34.70;;
2934;SDS011;2462;51.456;7.248;2022-12-01T15:12:50;57.07;;;31.53;;
2934;SDS011;2462;51.456;7.248;2022-12-01T15:15:17;68.07;;;31.70;;
2934;SDS011;2462;51.456;7.248;2022-12-01T15:17:43;61.90;;;30.77;;
2934;SDS011;2462;51.456;7.248;2022-12-01T15:23:01;59.93;;;32.37;;
2934;SDS011;2462;51.456;7.248;2022-12-01T15:25:36;61.33;;;30.67;;
2934;SDS011;2462;51.456;7.248;2022-12-01T15:28:12;63.70;;;32.53;;
2934;SDS011;2462;51.456;7.248;2022-12-01T15:30:42;65.20;;;31.33;;
2934;SDS011;2462;51.456;7.248;2022-12-01T15:33:32;56.97;;;30.37;;
2934;SDS011;2462;51.456;7.248;2022-12-01T15:35:57;55.67;;;27.53;;
2934;SDS011;2462;51.456;7.248;2022-12-01T15:38:28;60.17;;;32.07;;
2934;SDS011;2462;51.456;7.248;2022-12-01T15:40:57;53.93;;;30.30;;
2934;SDS011;2462;51.456;7.248;2022-12-01T15:43:25;59.10;;;32.07;;
2934;SDS011;2462;51.456;7.248;2022-12-01T15:46:00;56.07;;;31.40;;
2934;SDS011;2462;51.456;7.248;2022-12-01T15:48:34;54.93;;;28.60;;
2934;SDS011;2462;51.456;7.248;2022-12-01T15:51:12;68.90;;;34.07;;
2934;SDS011;2462;51.456;7.248;2022-12-01T15:53:47;62.90;;;32.30;;
2934;SDS011;2462;51.456;7.248;2022-12-01T15:56:24;71.97;;;33.60;;
2934;SDS011;2462;51.456;7.248;2022-12-01T15:58:54;55.40;;;30.37;;
2934;SDS011;2462;51.456;7.248;2022-12-01T16:01:27;59.60;;;31.17;;
2934;SDS011;2462;51.456;7.248;2022-12-01T16:03:55;59.80;;;32.20;;
2934;SDS011;2462;51.456;7.248;2022-12-01T16:06:26;68.50;;;33.00;;
2934;SDS011;2462;51.456;7.248;2022-12-01T16:08:55;69.27;;;32.43;;
2934;SDS011;2462;51.456;7.248;2022-12-01T16:11:24;63.23;;;29.87;;
2934;SDS011;2462;51.456;7.248;2022-12-01T16:13:57;57.70;;;29.70;;
2934;SDS011;2462;51.456;7.248;2022-12-01T16:19:27;60.00;;;32.60;;
2934;SDS011;2462;51.456;7.248;2022-12-01T16:24:27;63.17;;;31.30;;
2934;SDS011;2462;51.456;7.248;2022-12-01T16:27:05;66.43;;;32.70;;
2934;SDS011;2462;51.456;7.248;2022-12-01T16:29:45;68.83;;;33.23;;
2934;SDS011;2462;51.456;7.248;2022-12-01T16:32:39;63.47;;;30.30;;
2934;SDS011;2462;51.456;7.248;2022-12-01T16:35:25;67.30;;;32.67;;
2934;SDS011;2462;51.456;7.248;2022-12-01T16:37:54;62.60;;;31.00;;
2934;SDS011;2462;51.456;7.248;2022-12-01T16:40:20;58.50;;;31.87;;
2934;SDS011;2462;51.456;7.248;2022-12-01T16:42:46;59.00;;;28.90;;
2934;SDS011;2462;51.456;7.248;2022-12-01T16:45:13;64.70;;;32.20;;
2934;SDS011;2462;51.456;7.248;2022-12-01T16:47:42;62.40;;;32.23;;
2934;SDS011;2462;51.456;7.248;2022-12-01T16:50:11;62.20;;;29.63;;
2934;SDS011;2462;51.456;7.248;2022-12-01T16:52:38;58.63;;;29.77;;
2934;SDS011;2462;51.456;7.248;2022-12-01T16:55:05;56.10;;;29.03;;
2934;SDS011;2462;51.456;7.248;2022-12-01T16:57:46;61.80;;;30.27;;
2934;SDS011;2462;51.456;7.248;2022-12-01T17:00:12;60.87;;;29.20;;
2934;SDS011;2462;51.456;7.248;2022-12-01T17:02:38;62.10;;;31.33;;
2934;SDS011;2462;51.456;7.248;2022-12-01T17:05:04;53.50;;;31.63;;
2934;SDS011;2462;51.456;7.248;2022-12-01T17:07:29;56.10;;;27.40;;
2934;SDS011;2462;51.456;7.248;2022-12-01T17:09:55;53.77;;;30.20;;
2934;SDS011;2462;51.456;7.248;2022-12-01T17:12:20;55.70;;;28.73;;
2934;SDS011;2462;51.456;7.248;2022-12-01T17:14:49;59.67;;;28.93;;
2934;SDS011;2462;51.456;7.248;2022-12-01T17:17:14;50.90;;;28.37;;